Time;durP1;ratioP1;P1;durP2;ratioP2;P2;SDS_P1;SDS_P2;PMS_P1;PMS_P2;Temp;Humidity;BMP_temperature;BMP_pressure;BME280_temperature;BME280_humidity;BME280_pressure;Samples;Min_cycle;Max_cycle;Signal;HPM_P1;HPM_P2
2022/04/06 00:00:19;;;;;;;22.23;7.22;;;8.80;99.90;;;;;;5021377;28;20049;-68
2022/04/06 00:02:46;;;;;;;22.60;8.07;;;8.80;99.90;;;;;;5026339;28;20038;-68
2022/04/06 00:05:11;;;;;;;27.35;8.30;;;8.80;99.90;;;;;;5022214;28;20497;-69
2022/04/06 00:07:41;;;;;;;23.67;8.60;;;8.80;99.90;;;;;;5004025;28;20056;-68
2022/04/06 00:10:10;;;;;;;20.77;7.65;;;8.80;99.90;;;;;;5005190;28;20072;-69
2022/04/06 00:12:37;;;;;;;22.33;8.82;;;8.80;99.90;;;;;;5005695;28;20044;-68
2022/04/06 00:15:05;;;;;;;25.80;9.43;;;8.80;99.90;;;;;;5027016;28;20033;-68
2022/04/06 00:17:31;;;;;;;24.35;8.65;;;8.80;99.90;;;;;;5001485;28;20120;-68
2022/04/06 00:19:57;;;;;;;27.98;8.40;;;8.80;99.90;;;;;;5006557;28;20121;-68
2022/04/06 00:22:22;;;;;;;20.65;7.03;;;8.90;99.90;;;;;;5007812;28;20488;-68
2022/04/06 00:24:48;;;;;;;16.35;5.97;;;8.80;99.90;;;;;;5020874;28;20037;-69
2022/04/06 00:27:14;;;;;;;24.85;8.48;;;8.80;99.90;;;;;;5023442;28;20033;-69
2022/04/06 00:29:40;;;;;;;27.17;9.43;;;8.80;99.90;;;;;;5023824;28;20057;-69
2022/04/06 00:32:06;;;;;;;24.40;7.95;;;8.80;99.90;;;;;;5022584;28;20293;-69
2022/04/06 00:37:16;;;;;;;17.08;6.43;;;8.80;99.90;;;;;;5007191;28;20498;-69
2022/04/06 00:39:41;;;;;;;17.55;5.93;;;8.90;99.90;;;;;;5005037;28;20141;-69
2022/04/06 00:42:07;;;;;;;17.77;6.95;;;8.90;99.90;;;;;;5005600;28;20115;-70
2022/04/06 00:44:34;;;;;;;17.13;5.90;;;8.90;99.90;;;;;;5023784;28;20563;-68
2022/04/06 00:47:04;;;;;;;11.68;4.75;;;9.00;99.90;;;;;;5019158;28;20508;-69
2022/04/06 00:49:31;;;;;;;9.30;5.00;;;8.90;99.90;;;;;;5024824;28;20740;-69
2022/04/06 00:51:59;;;;;;;15.15;5.40;;;9.00;99.90;;;;;;5024141;28;20045;-69
2022/04/06 00:54:25;;;;;;;21.60;5.60;;;9.00;99.90;;;;;;5023140;28;20065;-70
2022/04/06 00:56:51;;;;;;;10.98;4.38;;;9.00;99.90;;;;;;5004498;28;20497;-69
2022/04/06 00:59:18;;;;;;;12.40;4.38;;;9.00;99.90;;;;;;5004886;28;20157;-70
2022/04/06 01:01:48;;;;;;;15.90;6.03;;;9.00;99.90;;;;;;5024401;28;20050;-69
2022/04/06 01:04:15;;;;;;;16.52;4.78;;;9.00;99.90;;;;;;5020985;28;20049;-69
2022/04/06 01:06:42;;;;;;;17.45;5.35;;;9.00;99.90;;;;;;5021359;28;20045;-69
2022/04/06 01:09:08;;;;;;;15.98;4.97;;;9.00;99.90;;;;;;5024390;28;20228;-69
2022/04/06 01:11:34;;;;;;;14.90;4.60;;;9.00;99.90;;;;;;5005287;28;20128;-70
2022/04/06 01:14:02;;;;;;;13.38;4.38;;;9.00;99.90;;;;;;5023033;28;20116;-69
2022/04/06 01:16:28;;;;;;;11.10;3.50;;;9.00;99.90;;;;;;5004693;28;20481;-67
2022/04/06 01:18:54;;;;;;;12.32;4.22;;;9.00;99.90;;;;;;5002868;28;20051;-69
2022/04/06 01:21:21;;;;;;;11.75;4.13;;;9.00;99.90;;;;;;5003231;28;20050;-68
2022/04/06 01:23:46;;;;;;;13.13;4.13;;;9.00;99.90;;;;;;5024791;28;20529;-69
2022/04/06 01:26:13;;;;;;;15.45;4.28;;;9.00;99.90;;;;;;5025197;28;20040;-69
2022/04/06 01:28:40;;;;;;;11.93;3.15;;;9.00;99.90;;;;;;5021149;28;20517;-70
2022/04/06 01:31:06;;;;;;;11.82;3.47;;;9.00;99.90;;;;;;5022112;28;20045;-70
2022/04/06 01:33:32;;;;;;;12.88;3.80;;;9.10;99.90;;;;;;5021272;28;20044;-69
2022/04/06 01:35:59;;;;;;;17.02;3.78;;;9.00;99.90;;;;;;5024661;28;20045;-69
2022/04/06 01:38:25;;;;;;;12.95;3.20;;;9.00;99.90;;;;;;5002820;28;20083;-69
2022/04/06 01:40:52;;;;;;;12.25;3.40;;;9.10;99.90;;;;;;5004229;28;20042;-69
2022/04/06 01:43:18;;;;;;;10.68;3.30;;;9.10;99.90;;;;;;5021345;28;20108;-69
2022/04/06 01:45:43;;;;;;;10.30;3.10;;;9.10;99.90;;;;;;5004069;28;20061;-69
2022/04/06 01:48:09;;;;;;;13.23;3.40;;;9.10;99.90;;;;;;5021513;28;20049;-69
2022/04/06 01:53:19;;;;;;;13.00;2.65;;;9.10;99.90;;;;;;4999273;28;20033;-70
2022/04/06 01:55:44;;;;;;;11.70;2.72;;;9.10;99.90;;;;;;5003824;28;20060;-70
2022/04/06 01:58:10;;;;;;;6.20;2.60;;;9.10;99.90;;;;;;5023098;28;20093;-70
2022/04/06 02:00:36;;;;;;;8.38;2.40;;;9.10;99.90;;;;;;5002477;28;20042;-69
2022/04/06 02:03:01;;;;;;;10.43;2.53;;;9.20;99.90;;;;;;5020004;28;20181;-70
2022/04/06 02:05:33;;;;;;;9.02;2.42;;;9.20;99.90;;;;;;5002098;28;20116;-69
2022/04/06 02:07:59;;;;;;;7.72;2.13;;;9.20;99.90;;;;;;5005265;28;20045;-67
2022/04/06 02:10:25;;;;;;;10.13;2.65;;;9.20;99.90;;;;;;5020789;28;20049;-67
2022/04/06 02:12:54;;;;;;;11.88;2.55;;;9.20;99.90;;;;;;5024430;28;20041;-67
2022/04/06 02:15:20;;;;;;;8.30;2.42;;;9.10;99.90;;;;;;5001651;28;20034;-68
2022/04/06 02:17:47;;;;;;;10.10;2.75;;;9.10;99.90;;;;;;5022611;28;20103;-68
2022/04/06 02:20:14;;;;;;;7.82;2.25;;;9.10;99.90;;;;;;5008232;28;20049;-68
2022/04/06 02:22:41;;;;;;;8.85;2.33;;;9.20;99.90;;;;;;5007817;28;20046;-68
2022/04/06 02:25:07;;;;;;;6.68;1.50;;;9.10;99.90;;;;;;5025984;28;20037;-68
2022/04/06 02:27:32;;;;;;;10.88;2.80;;;9.20;99.90;;;;;;5025588;28;20129;-68
2022/04/06 02:29:58;;;;;;;12.95;3.33;;;9.20;99.90;;;;;;5007932;28;20073;-68
2022/04/06 02:32:24;;;;;;;8.07;2.17;;;9.20;99.90;;;;;;5009174;28;20420;-68
2022/04/06 02:34:50;;;;;;;8.07;2.53;;;9.10;99.90;;;;;;5024437;28;20048;-68
2022/04/06 02:37:16;;;;;;;10.75;2.58;;;9.10;99.90;;;;;;5007255;28;20045;-69
2022/04/06 02:39:41;;;;;;;10.50;2.30;;;9.10;99.90;;;;;;5004898;28;20435;-68
2022/04/06 02:42:08;;;;;;;6.93;2.08;;;9.10;99.90;;;;;;5004795;28;20478;-69
2022/04/06 02:44:34;;;;;;;7.18;2.20;;;9.10;99.90;;;;;;5006525;28;20043;-69
2022/04/06 02:47:00;;;;;;;16.27;2.78;;;9.10;99.90;;;;;;5002563;28;20042;-68
2022/04/06 02:49:26;;;;;;;7.72;2.03;;;9.10;99.90;;;;;;5005593;28;20050;-68
2022/04/06 02:51:51;;;;;;;11.40;2.80;;;9.10;99.90;;;;;;5008241;28;20092;-68
2022/04/06 02:54:17;;;;;;;13.15;3.15;;;9.00;99.90;;;;;;5008101;28;20045;-67
2022/04/06 02:56:43;;;;;;;10.68;3.78;;;9.10;99.90;;;;;;5003331;28;20140;-68
2022/04/06 02:59:09;;;;;;;13.48;4.10;;;9.00;99.90;;;;;;5000517;28;20100;-68
2022/04/06 03:01:34;;;;;;;9.38;3.38;;;9.00;99.90;;;;;;5000289;28;20046;-68
2022/04/06 03:04:00;;;;;;;7.45;2.72;;;9.00;99.90;;;;;;5002985;28;20086;-68
2022/04/06 03:06:26;;;;;;;12.35;3.65;;;9.00;99.90;;;;;;5001281;28;20049;-68
2022/04/06 03:08:51;;;;;;;13.18;4.47;;;9.00;99.90;;;;;;5004297;28;20049;-68
2022/04/06 03:11:17;;;;;;;12.77;3.95;;;9.00;99.90;;;;;;5002515;28;20144;-68
2022/04/06 03:13:43;;;;;;;13.63;4.57;;;9.00;99.90;;;;;;5004886;28;20152;-69
2022/04/06 03:16:09;;;;;;;14.00;4.22;;;9.00;99.90;;;;;;5004615;28;20409;-69
2022/04/06 03:18:35;;;;;;;7.70;3.58;;;9.00;99.90;;;;;;5004664;28;20049;-68
2022/04/06 03:21:00;;;;;;;12.02;3.65;;;9.00;99.90;;;;;;5002162;28;20037;-69
2022/04/06 03:23:27;;;;;;;18.42;5.03;;;9.10;99.90;;;;;;5002722;28;20494;-68
2022/04/06 03:25:52;;;;;;;13.98;4.70;;;9.00;99.90;;;;;;5009185;28;20552;-69
2022/04/06 03:28:19;;;;;;;17.15;4.55;;;9.00;99.90;;;;;;5004894;28;20041;-68
2022/04/06 03:30:45;;;;;;;13.63;4.28;;;9.00;99.90;;;;;;5005466;28;20042;-68
2022/04/06 03:33:12;;;;;;;11.00;3.50;;;9.00;99.90;;;;;;5003825;28;20160;-69
2022/04/06 03:35:38;;;;;;;21.90;5.50;;;8.90;99.90;;;;;;5005902;28;20061;-68
2022/04/06 03:38:04;;;;;;;14.63;4.72;;;8.90;99.90;;;;;;5004453;28;20349;-69
2022/04/06 03:40:30;;;;;;;15.75;5.22;;;8.90;99.90;;;;;;5005088;28;20091;-70
2022/04/06 03:42:56;;;;;;;11.50;4.32;;;8.80;99.90;;;;;;5001618;28;20054;-69
2022/04/06 03:45:22;;;;;;;12.52;4.78;;;8.80;99.90;;;;;;5004348;28;20462;-68
2022/04/06 03:47:47;;;;;;;27.55;6.47;;;8.80;99.90;;;;;;5004290;28;20766;-69
2022/04/06 03:50:14;;;;;;;13.25;4.95;;;8.80;99.90;;;;;;4999450;28;20413;-69
2022/04/06 03:52:40;;;;;;;13.10;5.10;;;8.80;99.90;;;;;;5007212;28;20069;-69
2022/04/06 03:55:08;;;;;;;17.27;4.95;;;8.80;99.90;;;;;;5001771;28;20038;-69
2022/04/06 03:57:35;;;;;;;8.40;2.72;;;8.70;99.90;;;;;;5004665;28;20056;-68
2022/04/06 04:00:04;;;;;;;18.83;5.93;;;8.80;99.90;;;;;;5002832;28;20042;-69
2022/04/06 04:02:30;;;;;;;16.35;4.60;;;8.70;99.90;;;;;;5004399;28;20125;-68
2022/04/06 04:04:55;;;;;;;15.25;5.00;;;8.70;99.90;;;;;;5003497;28;20077;-68
2022/04/06 04:07:22;;;;;;;18.77;4.80;;;8.80;99.90;;;;;;5002702;28;20073;-68
2022/04/06 04:09:49;;;;;;;14.63;4.72;;;8.70;99.90;;;;;;5001764;28;20449;-69
2022/04/06 04:12:15;;;;;;;11.90;3.25;;;8.70;99.90;;;;;;5005496;28;20130;-69
2022/04/06 04:14:40;;;;;;;16.88;5.18;;;8.60;99.90;;;;;;5005248;28;20136;-68
2022/04/06 04:17:06;;;;;;;17.63;4.60;;;8.70;99.90;;;;;;4999345;28;20041;-69
2022/04/06 04:19:32;;;;;;;21.98;5.65;;;8.70;99.90;;;;;;5002579;28;20038;-69
2022/04/06 04:21:58;;;;;;;18.63;5.72;;;8.60;99.90;;;;;;5003252;28;20440;-70
2022/04/06 04:24:24;;;;;;;16.67;4.78;;;8.60;99.90;;;;;;4998416;28;20057;-70
2022/04/06 04:26:49;;;;;;;18.63;5.60;;;8.60;99.90;;;;;;5003604;28;20049;-69
2022/04/06 04:29:16;;;;;;;25.52;6.07;;;8.50;99.90;;;;;;5000989;28;20046;-69
2022/04/06 04:31:42;;;;;;;21.02;5.05;;;8.50;99.90;;;;;;5006712;28;20140;-69
2022/04/06 04:34:07;;;;;;;21.83;4.82;;;8.50;99.90;;;;;;5003630;28;20184;-69
2022/04/06 04:36:33;;;;;;;23.85;6.28;;;8.50;99.90;;;;;;5004719;28;20037;-68
2022/04/06 04:39:00;;;;;;;15.68;3.85;;;8.50;99.90;;;;;;5017287;28;20053;-68
2022/04/06 04:41:26;;;;;;;22.50;5.28;;;8.50;99.90;;;;;;5006336;28;20037;-68
2022/04/06 04:43:52;;;;;;;26.48;5.57;;;8.50;99.90;;;;;;5024372;28;20029;-67
2022/04/06 04:46:19;;;;;;;15.60;4.25;;;8.50;99.90;;;;;;5018839;28;20404;-67
2022/04/06 04:48:47;;;;;;;21.83;6.25;;;8.50;99.90;;;;;;5024023;28;20042;-67
2022/04/06 04:51:14;;;;;;;17.83;5.10;;;8.50;99.90;;;;;;5022505;28;20497;-67
2022/04/06 04:53:41;;;;;;;16.20;3.67;;;8.40;99.90;;;;;;5024838;28;20053;-67
2022/04/06 04:56:07;;;;;;;18.40;4.68;;;8.40;99.90;;;;;;5021511;28;20053;-68
2022/04/06 04:58:33;;;;;;;24.85;6.45;;;8.40;99.90;;;;;;5022443;28;20041;-67
2022/04/06 05:00:59;;;;;;;19.27;4.28;;;8.40;99.90;;;;;;5002575;28;20048;-67
2022/04/06 05:03:24;;;;;;;15.25;4.70;;;8.40;99.90;;;;;;5004333;28;20049;-68
2022/04/06 05:05:53;;;;;;;20.58;4.90;;;8.40;99.90;;;;;;5023883;28;20409;-67
2022/04/06 05:08:20;;;;;;;14.30;5.03;;;8.30;99.90;;;;;;5019223;28;20045;-67
2022/04/06 05:10:45;;;;;;;29.33;6.70;;;8.30;99.90;;;;;;5007353;28;20056;-67
2022/04/06 05:13:13;;;;;;;20.98;6.20;;;8.30;99.90;;;;;;5007467;28;20041;-67
2022/04/06 05:15:39;;;;;;;28.10;5.78;;;8.30;99.90;;;;;;5006982;28;20037;-67
2022/04/06 05:18:05;;;;;;;13.13;3.65;;;8.30;99.90;;;;;;5004147;28;20599;-67
2022/04/06 05:20:31;;;;;;;15.93;4.78;;;8.30;99.90;;;;;;5006847;28;20536;-66
2022/04/06 05:22:56;;;;;;;23.63;4.95;;;8.30;99.90;;;;;;5024874;28;20033;-66
2022/04/06 05:25:22;;;;;;;22.55;4.95;;;8.30;99.90;;;;;;5004746;28;20046;-68
2022/04/06 05:27:53;;;;;;;13.68;3.88;;;8.30;99.90;;;;;;5006623;28;20535;-67
2022/04/06 05:30:21;;;;;;;16.38;5.35;;;8.40;99.90;;;;;;5021744;28;20506;-66
2022/04/06 05:32:49;;;;;;;22.35;5.10;;;8.30;99.90;;;;;;5004631;28;20038;-67
2022/04/06 05:35:15;;;;;;;26.35;5.70;;;8.30;99.90;;;;;;5001371;28;20045;-66
2022/04/06 05:37:42;;;;;;;16.92;4.38;;;8.30;99.90;;;;;;5018934;28;20540;-65
2022/04/06 05:40:09;;;;;;;15.38;4.72;;;8.30;99.90;;;;;;5018077;28;20278;-66
2022/04/06 05:42:35;;;;;;;25.33;5.13;;;8.30;99.90;;;;;;5021977;28;20068;-66
2022/04/06 05:45:02;;;;;;;21.98;5.00;;;8.30;99.90;;;;;;5005093;28;20091;-66
2022/04/06 05:47:28;;;;;;;22.27;4.88;;;8.30;99.90;;;;;;5017011;28;20437;-67
2022/04/06 05:49:54;;;;;;;22.90;5.32;;;8.30;99.90;;;;;;5019918;28;20045;-68
2022/04/06 05:52:20;;;;;;;21.48;4.85;;;8.30;99.90;;;;;;5005375;28;20037;-67
2022/04/06 05:54:46;;;;;;;15.27;3.88;;;8.30;99.90;;;;;;5009403;28;20088;-67
2022/04/06 05:57:11;;;;;;;14.75;3.88;;;8.30;99.90;;;;;;5017694;28;20416;-68
2022/04/06 05:59:37;;;;;;;14.23;5.20;;;8.30;99.90;;;;;;5019089;28;20049;-68
2022/04/06 06:02:04;;;;;;;24.35;5.13;;;8.40;99.90;;;;;;5001223;28;20125;-69
2022/04/06 06:04:29;;;;;;;9.98;2.58;;;8.30;99.90;;;;;;4997077;28;20128;-73
2022/04/06 06:06:55;;;;;;;27.33;5.88;;;8.30;99.90;;;;;;5024647;28;20041;-76
2022/04/06 06:09:21;;;;;;;14.85;4.00;;;8.30;99.90;;;;;;5004738;28;20103;-71
2022/04/06 06:11:46;;;;;;;26.70;4.78;;;8.30;99.90;;;;;;5022711;28;20057;-71
2022/04/06 06:14:12;;;;;;;28.02;4.80;;;8.30;99.90;;;;;;5007035;28;20049;-70
2022/04/06 06:16:38;;;;;;;24.77;4.63;;;8.30;99.90;;;;;;5025666;28;20080;-70
2022/04/06 06:19:03;;;;;;;21.85;4.05;;;8.30;99.90;;;;;;5025775;28;20117;-71
2022/04/06 06:21:32;;;;;;;12.75;3.47;;;8.30;99.90;;;;;;5010682;28;20489;-71
2022/04/06 06:24:05;;;;;;;17.05;3.75;;;8.40;99.90;;;;;;5006923;28;20132;-72
2022/04/06 06:26:35;;;;;;;12.82;3.75;;;8.40;99.90;;;;;;5008658;28;20385;-71
2022/04/06 06:29:01;;;;;;;24.05;5.22;;;8.30;99.90;;;;;;5005931;28;20105;-71
2022/04/06 06:31:30;;;;;;;22.35;4.40;;;8.40;99.90;;;;;;5007141;28;20045;-71
2022/04/06 06:33:57;;;;;;;19.20;4.07;;;8.30;99.90;;;;;;5008339;28;20041;-70
2022/04/06 06:36:23;;;;;;;19.10;4.05;;;8.40;99.90;;;;;;5005459;28;20077;-71
2022/04/06 06:38:50;;;;;;;10.13;3.55;;;8.40;99.90;;;;;;5023668;28;20337;-70
2022/04/06 06:41:15;;;;;;;16.27;4.50;;;8.40;99.90;;;;;;5024435;28;20137;-71
2022/04/06 06:43:41;;;;;;;10.80;3.60;;;8.40;99.90;;;;;;5007689;28;20144;-70
2022/04/06 06:46:06;;;;;;;26.70;4.28;;;8.40;99.90;;;;;;5024676;28;20053;-71
2022/04/06 06:48:32;;;;;;;17.80;4.05;;;8.40;99.90;;;;;;5024676;28;20037;-71
2022/04/06 06:50:58;;;;;;;18.15;4.65;;;8.40;99.90;;;;;;5025474;28;20041;-71
2022/04/06 06:53:23;;;;;;;16.15;4.72;;;8.40;99.90;;;;;;5005805;28;20492;-71
2022/04/06 06:55:49;;;;;;;15.45;3.75;;;8.40;99.90;;;;;;5023033;28;20107;-70
2022/04/06 06:58:14;;;;;;;15.95;4.03;;;8.40;99.90;;;;;;5007367;28;20069;-70
2022/04/06 07:00:40;;;;;;;13.35;3.33;;;8.40;99.90;;;;;;5006105;28;20038;-71
2022/04/06 07:03:05;;;;;;;23.25;3.92;;;8.40;99.90;;;;;;5025579;28;20451;-71
2022/04/06 07:05:31;;;;;;;16.65;4.63;;;8.40;99.90;;;;;;5011012;28;20500;-71
2022/04/06 07:07:59;;;;;;;17.00;4.05;;;8.50;99.90;;;;;;5030399;28;20049;-71
2022/04/06 07:10:26;;;;;;;14.60;2.67;;;8.50;99.90;;;;;;5029308;28;20056;-71
2022/04/06 07:12:52;;;;;;;25.83;5.03;;;8.50;99.90;;;;;;5031269;28;20563;-79
2022/04/06 07:15:19;;;;;;;15.68;4.47;;;8.50;99.90;;;;;;5008254;28;20050;-77
2022/04/06 07:17:49;;;;;;;17.88;4.00;;;8.50;99.90;;;;;;5007914;28;20072;-76
2022/04/06 07:20:15;;;;;;;13.38;3.65;;;8.50;99.90;;;;;;5027597;28;20069;-76
2022/04/06 07:22:41;;;;;;;20.00;3.70;;;8.50;99.90;;;;;;5009132;28;20129;-78
2022/04/06 07:25:08;;;;;;;17.52;3.78;;;8.50;99.90;;;;;;5029674;28;20132;-78
2022/04/06 07:27:36;;;;;;;18.15;3.72;;;8.50;99.90;;;;;;5010571;28;20478;-78
2022/04/06 07:30:05;;;;;;;12.23;3.20;;;8.50;99.90;;;;;;5005929;28;20517;-77
2022/04/06 07:32:31;;;;;;;25.02;4.18;;;8.50;99.90;;;;;;5026899;28;20041;-78
2022/04/06 07:34:57;;;;;;;14.85;4.03;;;8.60;99.90;;;;;;5011040;28;20091;-78
2022/04/06 07:37:22;;;;;;;12.55;3.13;;;8.60;99.90;;;;;;5026469;28;20048;-77
2022/04/06 07:39:48;;;;;;;11.77;4.07;;;8.60;99.90;;;;;;5010654;28;20103;-77
2022/04/06 07:42:13;;;;;;;18.55;3.30;;;8.70;99.90;;;;;;5010308;28;20045;-77
2022/04/06 07:44:39;;;;;;;12.55;3.05;;;8.60;99.90;;;;;;5009649;28;20060;-77
2022/04/06 07:47:05;;;;;;;16.17;3.33;;;8.50;99.90;;;;;;5009579;28;20042;-77
2022/04/06 07:49:31;;;;;;;16.20;3.42;;;8.60;99.90;;;;;;5028770;28;20099;-77
2022/04/06 07:51:56;;;;;;;13.95;3.45;;;8.50;99.90;;;;;;5010112;28;20042;-77
2022/04/06 07:54:22;;;;;;;10.77;2.45;;;8.60;99.90;;;;;;5025464;28;20033;-77
2022/04/06 07:56:48;;;;;;;14.32;3.42;;;8.60;99.90;;;;;;5010491;28;20554;-76
2022/04/06 07:59:13;;;;;;;10.77;2.53;;;8.70;99.90;;;;;;5025880;28;20045;-78
2022/04/06 08:01:39;;;;;;;17.98;3.28;;;8.70;99.90;;;;;;5008937;28;20049;-77
2022/04/06 08:04:04;;;;;;;20.15;4.28;;;8.80;99.90;;;;;;5006722;28;20042;-76
2022/04/06 08:06:30;;;;;;;12.05;2.67;;;8.80;99.90;;;;;;5029138;28;20164;-76
2022/04/06 08:08:56;;;;;;;9.32;2.55;;;8.90;99.90;;;;;;5025924;28;20052;-76
2022/04/06 08:11:22;;;;;;;12.25;2.35;;;8.90;99.90;;;;;;5027529;28;20038;-77
2022/04/06 08:13:48;;;;;;;24.67;4.53;;;8.80;99.90;;;;;;5008450;28;20408;-78
2022/04/06 08:16:14;;;;;;;18.65;3.13;;;8.90;99.90;;;;;;5005188;28;20551;-76
2022/04/06 08:18:40;;;;;;;14.07;3.35;;;8.90;99.90;;;;;;5009702;28;20103;-76
2022/04/06 08:21:05;;;;;;;10.27;2.17;;;8.90;99.90;;;;;;5009010;28;20111;-76
2022/04/06 08:23:32;;;;;;;15.75;3.17;;;9.00;99.90;;;;;;5009141;28;20057;-77
2022/04/06 08:25:58;;;;;;;12.90;2.63;;;9.00;99.90;;;;;;5010089;28;20057;-77
2022/04/06 08:28:25;;;;;;;14.85;4.45;;;9.10;99.90;;;;;;5025103;28;20048;-77
2022/04/06 08:30:50;;;;;;;16.90;3.50;;;9.10;99.90;;;;;;5026913;28;20128;-77
2022/04/06 08:33:16;;;;;;;20.05;4.13;;;9.10;99.90;;;;;;5026749;28;20125;-77
2022/04/06 08:35:42;;;;;;;14.50;4.13;;;9.20;99.90;;;;;;5025557;28;21047;-78
2022/04/06 08:38:13;;;;;;;9.80;2.70;;;9.20;99.90;;;;;;5025268;28;20045;-77
2022/04/06 08:40:43;;;;;;;13.77;2.53;;;9.40;99.90;;;;;;5006647;28;20057;-77
2022/04/06 08:43:11;;;;;;;9.82;2.70;;;9.50;99.90;;;;;;5004510;28;20489;-77
2022/04/06 08:45:39;;;;;;;10.32;2.53;;;9.60;99.90;;;;;;5006256;28;20404;-77
2022/04/06 08:48:09;;;;;;;10.30;2.40;;;9.70;99.90;;;;;;5005834;28;20065;-77
2022/04/06 08:50:36;;;;;;;12.27;3.25;;;9.90;99.90;;;;;;5006276;28;20046;-77
2022/04/06 08:53:04;;;;;;;15.30;3.03;;;10.00;99.90;;;;;;5000134;28;20041;-77
2022/04/06 08:55:33;;;;;;;17.77;3.42;;;10.10;99.90;;;;;;5000088;28;20038;-77
2022/04/06 08:58:00;;;;;;;10.85;2.33;;;10.30;99.90;;;;;;5004044;28;20042;-78
2022/04/06 09:00:26;;;;;;;12.70;3.08;;;10.30;99.90;;;;;;5006743;28;20182;-77
2022/04/06 09:02:53;;;;;;;8.90;2.75;;;10.40;99.90;;;;;;5007210;28;20076;-77
2022/04/06 09:05:32;;;;;;;19.65;3.70;;;10.50;99.90;;;;;;5002050;28;20108;-77
2022/04/06 09:07:58;;;;;;;15.40;3.38;;;10.60;99.90;;;;;;5003287;28;20567;-77
2022/04/06 09:10:28;;;;;;;16.73;3.45;;;10.70;99.90;;;;;;5004016;28;20073;-78
2022/04/06 09:13:13;;;;;;;17.30;4.13;;;10.90;99.90;;;;;;5002971;28;20043;-78
2022/04/06 09:15:39;;;;;;;15.18;3.60;;;10.90;99.90;;;;;;5001339;28;20046;-77
2022/04/06 09:18:05;;;;;;;16.48;3.63;;;10.80;99.90;;;;;;5000619;28;20063;-77
2022/04/06 09:20:31;;;;;;;15.10;4.00;;;10.80;99.90;;;;;;5002160;28;20046;-77
2022/04/06 09:23:02;;;;;;;12.93;3.15;;;10.70;99.90;;;;;;5008315;28;20286;-78
2022/04/06 09:25:36;;;;;;;17.20;3.70;;;10.70;99.90;;;;;;5003836;28;20046;-80
2022/04/06 09:28:06;;;;;;;11.50;2.60;;;10.50;99.90;;;;;;5001086;28;20038;-78
2022/04/06 09:30:35;;;;;;;10.60;2.72;;;10.40;99.90;;;;;;5004998;28;20046;-78
2022/04/06 09:33:03;;;;;;;14.02;3.35;;;10.40;99.90;;;;;;5004988;28;20069;-78
2022/04/06 09:35:32;;;;;;;16.23;3.15;;;10.40;99.90;;;;;;5007886;28;20097;-79
2022/04/06 09:38:10;;;;;;;15.30;3.30;;;10.40;99.90;;;;;;5006322;28;20545;-78
2022/04/06 09:40:37;;;;;;;15.57;4.70;;;10.40;99.90;;;;;;5004423;28;20110;-78
2022/04/06 09:43:04;;;;;;;20.83;3.40;;;10.30;99.90;;;;;;5008500;28;20069;-79
2022/04/06 09:48:14;;;;;;;12.18;2.70;;;10.40;99.90;;;;;;5004075;28;20046;-77
2022/04/06 09:50:42;;;;;;;15.15;3.47;;;10.50;99.90;;;;;;5006843;28;20099;-78
2022/04/06 09:53:08;;;;;;;14.85;2.40;;;10.60;99.90;;;;;;5006793;28;20037;-81
2022/04/06 09:55:35;;;;;;;22.23;4.13;;;10.60;99.90;;;;;;5003530;28;20053;-82
2022/04/06 09:58:05;;;;;;;22.33;4.28;;;10.70;99.90;;;;;;5005035;28;20132;-79
2022/04/06 10:00:31;;;;;;;13.70;3.42;;;10.70;99.90;;;;;;5004407;28;20107;-82
2022/04/06 10:03:10;;;;;;;15.63;3.45;;;10.70;99.90;;;;;;5002516;28;20042;-82
2022/04/06 10:05:38;;;;;;;13.70;2.95;;;10.70;99.90;;;;;;5001894;28;20083;-82
2022/04/06 10:08:06;;;;;;;15.00;3.42;;;10.70;99.90;;;;;;5003253;28;20041;-82
2022/04/06 10:10:38;;;;;;;21.20;4.28;;;10.70;99.90;;;;;;5003353;28;20050;-83
2022/04/06 10:13:04;;;;;;;19.17;4.32;;;10.60;99.90;;;;;;5000308;28;20077;-78
2022/04/06 10:15:30;;;;;;;19.23;3.80;;;10.50;99.90;;;;;;4995599;28;20040;-80
2022/04/06 10:17:56;;;;;;;15.48;4.50;;;10.50;99.90;;;;;;5000599;28;20081;-80
2022/04/06 10:20:23;;;;;;;13.60;3.78;;;10.50;99.90;;;;;;4992795;28;20133;-80
2022/04/06 10:23:00;;;;;;;9.50;3.47;;;10.50;99.90;;;;;;4998273;28;20174;-79
2022/04/06 10:25:56;;;;;;;15.60;3.30;;;10.40;99.90;;;;;;4999116;28;20060;-79
2022/04/06 10:28:22;;;;;;;15.00;3.47;;;10.50;99.90;;;;;;4997856;28;20529;-77
2022/04/06 10:31:19;;;;;;;21.27;3.88;;;10.50;99.90;;;;;;4998833;28;20050;-79
2022/04/06 10:33:48;;;;;;;19.42;4.22;;;10.60;99.90;;;;;;5002335;28;20476;-77
2022/04/06 10:36:18;;;;;;;13.52;2.80;;;10.60;99.90;;;;;;5003033;28;20548;-81
2022/04/06 10:39:19;;;;;;;20.00;2.72;;;10.60;99.90;;;;;;5015991;28;20168;-80
2022/04/06 10:42:14;;;;;;;19.25;3.70;;;10.70;99.90;;;;;;4953691;28;20520;-80
2022/04/06 10:44:41;;;;;;;17.33;3.65;;;10.90;99.90;;;;;;5015848;28;20053;-80
2022/04/06 10:47:10;;;;;;;12.45;3.47;;;11.00;99.90;;;;;;5040305;28;20539;-78
2022/04/06 10:49:36;;;;;;;15.88;4.07;;;11.10;99.90;;;;;;5015348;28;20115;-79
2022/04/06 10:52:19;;;;;;;27.48;4.50;;;11.20;99.90;;;;;;5023673;28;20070;-79
2022/04/06 10:54:45;;;;;;;13.68;3.25;;;11.30;99.90;;;;;;5032097;28;20060;-79
2022/04/06 10:57:11;;;;;;;10.25;2.63;;;11.40;99.90;;;;;;5025320;28;20033;-81
2022/04/06 10:59:37;;;;;;;12.68;3.65;;;11.50;99.90;;;;;;5007071;28;20441;-79
2022/04/06 11:02:19;;;;;;;9.18;2.28;;;11.60;99.90;;;;;;5009466;28;20037;-79
2022/04/06 11:04:46;;;;;;;19.63;4.20;;;11.70;99.90;;;;;;5037361;28;20053;-78
2022/04/06 11:07:15;;;;;;;14.55;3.35;;;11.70;99.90;;;;;;5011484;28;20057;-78
2022/04/06 11:12:33;;;;;;;13.43;4.45;;;12.00;99.90;;;;;;5026166;28;20493;-77
2022/04/06 11:14:59;;;;;;;10.40;3.17;;;12.10;99.90;;;;;;5023851;28;20524;-77
2022/04/06 11:17:44;;;;;;;11.20;3.33;;;12.10;99.90;;;;;;5024997;28;20043;-77
2022/04/06 11:20:28;;;;;;;14.50;3.58;;;12.20;99.90;;;;;;5001958;28;20081;-76
2022/04/06 11:22:55;;;;;;;11.45;2.90;;;12.10;99.90;;;;;;5011490;28;20041;-75
2022/04/06 11:25:23;;;;;;;16.42;3.55;;;12.10;99.90;;;;;;5001693;28;20041;-75
2022/04/06 11:27:50;;;;;;;14.43;3.25;;;12.20;99.90;;;;;;5003086;28;20073;-76
2022/04/06 11:30:19;;;;;;;12.95;3.20;;;12.20;99.90;;;;;;5003412;28;20079;-77
2022/04/06 11:32:57;;;;;;;9.63;2.83;;;12.20;99.90;;;;;;5021805;28;20061;-73
2022/04/06 11:35:30;;;;;;;14.27;4.03;;;12.30;99.90;;;;;;5006552;28;20134;-73
2022/04/06 11:37:57;;;;;;;14.38;3.97;;;12.30;99.90;;;;;;5008445;28;20083;-73
2022/04/06 11:40:25;;;;;;;14.20;3.58;;;12.40;99.90;;;;;;5005649;28;20050;-74
2022/04/06 11:42:52;;;;;;;12.65;3.15;;;12.40;99.90;;;;;;5025997;28;20088;-73
2022/04/06 11:45:29;;;;;;;18.48;3.92;;;12.40;99.90;;;;;;5020122;28;20129;-73
2022/04/06 11:47:56;;;;;;;15.48;3.65;;;12.30;99.90;;;;;;5025722;28;20037;-74
2022/04/06 11:50:32;;;;;;;21.27;4.18;;;12.30;99.90;;;;;;5021823;28;20041;-73
2022/04/06 11:53:06;;;;;;;12.98;3.15;;;12.30;99.90;;;;;;5021013;28;20076;-74
2022/04/06 11:55:48;;;;;;;19.25;3.90;;;12.30;99.90;;;;;;5013065;28;20143;-73
2022/04/06 11:58:33;;;;;;;12.63;2.92;;;12.20;99.90;;;;;;5000604;28;20053;-73
2022/04/06 12:01:04;;;;;;;18.60;3.28;;;12.20;99.90;;;;;;5016827;28;20155;-73
2022/04/06 12:03:32;;;;;;;23.20;4.55;;;12.20;99.90;;;;;;5020056;28;20045;-74
2022/04/06 12:05:58;;;;;;;16.92;4.38;;;12.10;99.90;;;;;;5005415;28;20321;-75
2022/04/06 12:08:24;;;;;;;26.65;5.15;;;12.10;99.90;;;;;;5014622;28;20513;-73
2022/04/06 12:10:56;;;;;;;18.13;3.70;;;12.20;99.90;;;;;;5022826;28;20353;-74
2022/04/06 12:13:23;;;;;;;10.98;3.05;;;12.30;99.90;;;;;;5006443;28;20128;-73
2022/04/06 12:15:50;;;;;;;17.38;3.65;;;12.20;99.90;;;;;;5014604;28;20057;-73
2022/04/06 12:18:19;;;;;;;13.05;2.88;;;12.10;99.90;;;;;;5022351;28;20091;-73
2022/04/06 12:20:48;;;;;;;15.43;4.25;;;12.20;99.90;;;;;;5024885;28;20062;-74
2022/04/06 12:23:15;;;;;;;14.77;3.88;;;12.20;99.90;;;;;;5022208;28;20046;-73
2022/04/06 12:25:41;;;;;;;15.77;3.22;;;12.20;99.90;;;;;;5023264;28;20050;-74
2022/04/06 12:28:24;;;;;;;19.95;4.75;;;12.10;99.90;;;;;;5003790;28;20041;-74
2022/04/06 12:30:59;;;;;;;12.48;3.10;;;12.10;99.90;;;;;;5015230;28;20132;-74
2022/04/06 12:33:45;;;;;;;23.77;4.22;;;12.10;99.90;;;;;;5016158;28;21302;-74
2022/04/06 12:36:25;;;;;;;13.48;2.88;;;12.00;99.90;;;;;;4998574;28;20076;-73
2022/04/06 12:39:10;;;;;;;19.92;3.90;;;11.90;99.90;;;;;;4993379;28;20109;-74
2022/04/06 12:41:59;;;;;;;18.40;4.07;;;11.90;99.90;;;;;;4984436;28;20498;-73
2022/04/06 12:44:25;;;;;;;12.32;2.85;;;11.80;99.90;;;;;;4979342;28;20550;-74
2022/04/06 12:46:51;;;;;;;16.13;3.50;;;11.90;99.90;;;;;;4985115;28;20046;-75
2022/04/06 12:49:26;;;;;;;14.40;2.90;;;11.80;99.90;;;;;;4978153;28;20046;-74
2022/04/06 12:52:25;;;;;;;10.80;2.80;;;11.80;99.90;;;;;;4976017;28;20466;-73
2022/04/06 12:55:03;;;;;;;21.52;4.63;;;11.70;99.90;;;;;;4976927;28;20517;-74
2022/04/06 12:57:31;;;;;;;20.55;4.47;;;11.70;99.90;;;;;;4978758;28;20046;-73
2022/04/06 13:00:19;;;;;;;18.90;4.88;;;11.70;99.90;;;;;;4983238;28;20482;-74